Cetacea — WDG7421 — position and weather

sailwx.info

Track history (hours):
 
Tides and Currents Weather Stations Pressure Air Temp Water Temp Dewpoint Dewpoint Depression Visibility Wind Speed Wind Dir Waves Ship Positions

Cetacea

Owner: Boston Harbor Cruises, Boston, MA. More information available from US FCC via Universal Licensing System and Coast Guard Vessel Documentation Center.

Last reported at 2018-Jun-21 23:48 UTC. Time now 2018-Jun-22 13:28 UTC.
Position N 42°22' W 071°02'.

Length 25 m; draft 2 m.

Type: Passenger vessel. MMSI: 367567110.

Date/timePositionNaut miles runAvg speedWind from/ knotsBaromVisibWave heightAir tempDewpointWater temp
2018-Jun-21 23:48N 42°22' W 071°02'415.7
2018-Jun-21 23:30N 42°19' W 070°57'4 8.0
2018-Jun-21 23:00N 42°16' W 070°55'816.3
2018-Jun-21 22:30N 42°21' W 071°03'611.5
2018-Jun-21 22:01N 42°17' W 070°57'2 4.4
2018-Jun-21 21:30N 42°16' W 070°55'815.9
2018-Jun-21 21:00N 42°21' W 071°03'3 6.9
2018-Jun-21 20:30N 42°19' W 070°59'5 9.9
2018-Jun-21 20:00N 42°15' W 070°55'816.1
2018-Jun-21 19:30N 42°21' W 071°02'0 0.6
2018-Jun-21 19:00N 42°21' W 071°03'816.6
2018-Jun-21 18:31N 42°15' W 070°55'0 0.7
2018-Jun-21 18:00N 42°16' W 070°55'816.2
2018-Jun-21 17:30N 42°21' W 071°03'0 0.5
2018-Jun-21 17:00N 42°22' W 071°03'0 0.0
2018-Jun-21 16:30N 42°22' W 071°03'0 0.5
2018-Jun-21 16:00N 42°21' W 071°03'0 0.7
2018-Jun-21 15:30N 42°21' W 071°02'816.1
2018-Jun-21 15:00N 42°15' W 070°55'0 0.8
2018-Jun-21 14:30N 42°16' W 070°55'816.4
2018-Jun-21 14:00N 42°21' W 071°03'0 0.4
2018-Jun-21 13:30N 42°21' W 071°03'611.5
2018-Jun-21 13:00N 42°17' W 070°57'2 4.7
2018-Jun-21 12:30N 42°15' W 070°55'816.5
2018-Jun-21 12:00N 42°21' W 071°03'1 1.4
2018-Jun-21 11:30N 42°22' W 071°02'0 0.3
2018-Jun-21 11:01N 42°22' W 071°02'0 0.0
2018-Jun-20 22:22N 42°22' W 071°02'1 1.8
2018-Jun-20 22:00N 42°22' W 071°03'2 3.4
2018-Jun-20 21:30N 42°21' W 071°01'1223.5
2018-Jun-20 21:01N 42°23' W 070°45'1121.4
2018-Jun-20 20:30N 42°26' W 070°31'1 1.3
2018-Jun-20 20:00N 42°26' W 070°31'611.6
2018-Jun-20 19:31N 42°25' W 070°39'1224.3
2018-Jun-20 19:00N 42°21' W 070°54'612.8
2018-Jun-20 18:31N 42°22' W 071°03'1 1.6
2018-Jun-20 18:01N 42°22' W 071°02'0 0.0
2018-Jun-20 17:30N 42°22' W 071°02'1 2.2
2018-Jun-20 17:00N 42°21' W 071°01'1326.0
2018-Jun-20 16:30N 42°16' W 070°45'9 3.9
2018-Jun-20 14:05N 42°12' W 070°34'225.6
2018-Jun-20 14:00N 42°13' W 070°36'1325.5
2018-Jun-20 13:30N 42°19' W 070°51'918.7
2018-Jun-20 13:00N 42°22' W 071°03'0 0.0
2018-Jun-20 12:30N 42°22' W 071°03'0 0.1
2018-Jun-20 12:00N 42°22' W 071°03'0 0.1
2018-Jun-20 11:30N 42°22' W 071°03'1 0.0
2018-Jun-19 22:56N 42°22' W 071°02'1 1.5
2018-Jun-19 22:30N 42°22' W 071°03'1 2.8
2018-Jun-19 22:01N 42°21' W 071°01'1122.4
2018-Jun-19 21:31N 42°22' W 070°46'1223.7
2018-Jun-19 21:01N 42°24' W 070°30'3 5.9
2018-Jun-19 20:30N 42°24' W 070°26'2 3.2
2018-Jun-19 20:00N 42°24' W 070°28'611.4
2018-Jun-19 19:31N 42°25' W 070°36'1224.3
2018-Jun-19 19:01N 42°21' W 070°52'816.7
2018-Jun-19 18:30N 42°22' W 071°03'0 0.9
2018-Jun-19 18:00N 42°22' W 071°02'0 0.4
2018-Jun-19 17:30N 42°22' W 071°02'0 0.9
2018-Jun-19 17:00N 42°21' W 071°02'1 1.5
2018-Jun-19 16:30N 42°22' W 071°03'0 0.0
2018-Jun-19 16:00N 42°22' W 071°03'0 0.0
2018-Jun-19 15:30N 42°22' W 071°03'1 1.4
2018-Jun-19 15:01N 42°22' W 071°02'0 0.0
2018-Jun-19 14:31N 42°22' W 071°02'0 0.0
2018-Jun-19 14:00N 42°22' W 071°02'1 1.3
2018-Jun-19 13:30N 42°21' W 071°03'612.1
2018-Jun-19 13:01N 42°17' W 070°57'2 4.1
2018-Jun-19 12:30N 42°16' W 070°55'816.4
2018-Jun-19 12:00N 42°21' W 071°03'0 0.5
2018-Jun-19 11:30N 42°22' W 071°03'1 1.2
2018-Jun-19 11:00N 42°22' W 071°02'0 0.0
2018-Jun-19 10:30N 42°22' W 071°02'0 0.0
2018-Jun-18 21:53N 42°22' W 071°02'0 1.1
2018-Jun-18 21:31N 42°22' W 071°02'0 0.8
2018-Jun-18 21:01N 42°22' W 071°03'612.0
2018-Jun-18 20:30N 42°21' W 070°55'1223.7
2018-Jun-18 20:00N 42°25' W 070°40'3 6.6
2018-Jun-18 19:30N 42°26' W 070°36'1325.1
2018-Jun-18 19:01N 42°23' W 070°52'816.4
2018-Jun-18 18:31N 42°22' W 071°03'0 0.6
2018-Jun-18 18:01N 42°22' W 071°03'0 1.0
2018-Jun-18 17:31N 42°22' W 071°02'0 0.0
2018-Jun-18 17:00N 42°22' W 071°02'0 0.0
2018-Jun-18 16:31N 42°22' W 071°02'1 1.5
2018-Jun-18 16:00N 42°22' W 071°03'0 0.5
2018-Jun-18 15:30N 42°21' W 071°03'816.6
2018-Jun-18 15:00N 42°15' W 070°55'0 0.6
2018-Jun-18 14:30N 42°16' W 070°55'816.3
2018-Jun-18 14:00N 42°21' W 071°03'0 0.6
2018-Jun-18 13:30N 42°22' W 071°03'0 0.0
2018-Jun-18 13:00N 42°22' W 071°03'1019.1
2018-Jun-18 12:30N 42°19' W 070°51'2725.6
2018-Jun-18 11:28N 42°05' W 070°20'714.3
2018-Jun-18 10:59N 42°03' W 070°11'0 0.8
2018-Jun-18 10:30N 42°03' W 070°11'3 6.8
2018-Jun-18 10:01N 42°03' W 070°15'1325.7
2018-Jun-18 09:30N 42°10' W 070°29'1325.9
2018-Jun-18 09:00N 42°17' W 070°44'1325.8
2018-Jun-18 08:30N 42°21' W 071°01'1 2.5
2018-Jun-18 08:00N 42°22' W 071°02'0 0.0
2018-Jun-17 18:03N 42°22' W 071°02'0 0.0
2018-Jun-17 18:00N 42°22' W 071°02'0 0.3
2018-Jun-17 17:30N 42°22' W 071°02'1 1.2
2018-Jun-17 17:01N 42°22' W 071°03'0 0.1
2018-Jun-17 16:30N 42°22' W 071°03'917.7
2018-Jun-17 16:00N 42°21' W 070°51'1325.2
2018-Jun-17 15:31N 42°23' W 070°34'815.4
2018-Jun-17 15:00N 42°26' W 070°25'0 1.0
2018-Jun-17 14:30N 42°26' W 070°25'714.2
2018-Jun-17 14:01N 42°23' W 070°34'1325.4
2018-Jun-17 13:31N 42°21' W 070°51'917.4
2018-Jun-17 13:01N 42°22' W 071°03'0 0.0
2018-Jun-17 12:30N 42°22' W 071°03'0 0.2
2018-Jun-17 12:00N 42°22' W 071°03'0 0.1
2018-Jun-17 11:30N 42°22' W 071°03'1 0.0
2018-Jun-16 17:53N 42°22' W 071°02'1 2.1
2018-Jun-16 17:30N 42°22' W 071°03'4 7.4
2018-Jun-16 17:00N 42°20' W 070°58'1224.1
2018-Jun-16 16:30N 42°27' W 070°45'1224.8
2018-Jun-16 16:01N 42°34' W 070°31'816.7
2018-Jun-16 15:30N 42°40' W 070°24'2 3.0
2018-Jun-16 15:00N 42°40' W 070°26'3 5.8
2018-Jun-16 14:31N 42°38' W 070°29'1224.3
2018-Jun-16 14:00N 42°30' W 070°42'1224.4
2018-Jun-16 13:31N 42°22' W 070°54'713.0
2018-Jun-16 13:00N 42°22' W 071°03'0 0.0
2018-Jun-16 12:30N 42°22' W 071°03'0 0.2
2018-Jun-16 12:00N 42°22' W 071°03'0 0.3
2018-Jun-16 11:30N 42°22' W 071°03'1 0.0
2018-Jun-15 23:36N 42°22' W 071°02'115.0
2018-Jun-15 23:30N 42°21' W 071°01'612.7
2018-Jun-15 23:00N 42°16' W 070°55'816.2
2018-Jun-15 22:30N 42°21' W 071°03'510.1
2018-Jun-15 22:00N 42°18' W 070°58'3 6.1
2018-Jun-15 21:30N 42°16' W 070°55'816.2
2018-Jun-15 21:01N 42°21' W 071°03'3 6.4
2018-Jun-15 20:31N 42°19' W 070°60'510.3
2018-Jun-15 20:00N 42°15' W 070°55'816.2
2018-Jun-15 19:30N 42°21' W 071°03'0 0.4
2018-Jun-15 19:01N 42°21' W 071°03'816.6
2018-Jun-15 18:30N 42°15' W 070°55'0 0.7
2018-Jun-15 18:00N 42°16' W 070°55'816.3
2018-Jun-15 17:30N 42°21' W 071°03'0 0.5
2018-Jun-15 17:00N 42°21' W 071°03'0 0.6
2018-Jun-15 16:31N 42°22' W 071°03'0 0.0
2018-Jun-15 16:01N 42°22' W 071°03'1 1.1
2018-Jun-15 15:30N 42°22' W 071°02'0 0.3
2018-Jun-15 15:00N 42°22' W 071°02'0 0.1
2018-Jun-15 14:30N 42°22' W 071°02'0 0.0
2018-Jun-15 14:00N 42°22' W 071°02'0 0.0
2018-Jun-15 13:30N 42°22' W 071°02'0 0.0
2018-Jun-15 13:01N 42°22' W 071°02'0 0.0
2018-Jun-14 23:36N 42°22' W 071°02'0 0.0
2018-Jun-14 23:30N 42°22' W 071°02'1 1.4
2018-Jun-14 23:00N 42°22' W 071°03'0 0.3
2018-Jun-14 22:31N 42°22' W 071°03'1020.6
2018-Jun-14 22:01N 42°18' W 070°49'20 9.2
2018-Jun-14 19:52N 42°15' W 070°23'925.1
2018-Jun-14 19:30N 42°15' W 070°36'1325.6
2018-Jun-14 19:01N 42°19' W 070°52'917.2
2018-Jun-14 18:30N 42°22' W 071°03'0 0.8
2018-Jun-14 18:01N 42°22' W 071°03'0 0.7
2018-Jun-14 17:30N 42°22' W 071°03'0 0.0
2018-Jun-14 17:00N 42°22' W 071°03'0 0.0
2018-Jun-14 16:30N 42°22' W 071°03'1 1.5
2018-Jun-14 16:00N 42°22' W 071°02'0 0.9
2018-Jun-14 15:30N 42°22' W 071°03'0 0.5
2018-Jun-14 15:00N 42°22' W 071°03'0 0.9
2018-Jun-14 14:30N 42°22' W 071°02'0 0.5
2018-Jun-14 14:00N 42°22' W 071°02'510.9
2018-Jun-14 13:30N 42°17' W 070°58'2 4.5
2018-Jun-14 13:00N 42°16' W 070°55'815.4
2018-Jun-14 12:31N 42°21' W 071°03'0 0.6
2018-Jun-14 12:00N 42°22' W 071°03'0 1.0
2018-Jun-14 11:30N 42°21' W 071°02'0 0.0
2018-Jun-13 23:16N 42°22' W 071°02'1 3.1
2018-Jun-13 23:01N 42°22' W 071°03'0 0.0
2018-Jun-13 22:31N 42°22' W 071°03'816.7
2018-Jun-13 22:00N 42°24' W 070°52'1224.5
2018-Jun-13 21:31N 42°33' W 070°41'1122.6
2018-Jun-13 21:00N 42°41' W 070°29'1 2.7
2018-Jun-13 20:30N 42°39' W 070°29'2 3.4
2018-Jun-13 20:01N 42°39' W 070°27'1325.4
2018-Jun-13 19:31N 42°31' W 070°40'1326.2
2018-Jun-13 19:01N 42°23' W 070°54'713.2
2018-Jun-13 18:30N 42°22' W 071°03'0 0.7
2018-Jun-13 18:01N 42°22' W 071°03'0 0.9
2018-Jun-13 17:30N 42°22' W 071°02'0 0.0
2018-Jun-13 17:01N 42°22' W 071°02'0 0.0
2018-Jun-13 16:30N 42°22' W 071°02'0 0.0
2018-Jun-13 16:01N 42°22' W 071°02'0 0.0
2018-Jun-13 15:30N 42°22' W 071°02'0 0.0
2018-Jun-13 15:00N 42°22' W 071°02'0 0.0
2018-Jun-13 14:30N 42°22' W 071°02'1 1.6
2018-Jun-13 14:00N 42°21' W 071°03'713.6
2018-Jun-13 13:30N 42°17' W 070°56'1 1.9
2018-Jun-13 13:01N 42°16' W 070°55'815.4
2018-Jun-13 12:30N 42°21' W 071°03'0 0.5
2018-Jun-13 12:00N 42°22' W 071°03'0 0.0
2018-Jun-13 11:30N 42°22' W 071°03'1 1.4
2018-Jun-13 11:00N 42°22' W 071°02'0 0.0
2018-Jun-12 23:01N 42°22' W 071°02'0 0.0
2018-Jun-12 23:00N 42°22' W 071°02'1 1.6
2018-Jun-12 22:31N 42°22' W 071°03'3 6.8
2018-Jun-12 22:01N 42°20' W 070°59'1121.9
2018-Jun-12 21:31N 42°27' W 070°47'1121.5
2018-Jun-12 21:00N 42°34' W 070°36'714.3
2018-Jun-12 20:31N 42°35' W 070°26'1223.8
2018-Jun-12 20:00N 42°24' W 070°23'1121.7
2018-Jun-12 19:30N 42°22' W 070°37'1224.9
2018-Jun-12 19:00N 42°21' W 070°54'713.1
2018-Jun-12 18:30N 42°22' W 071°03'0 0.0
2018-Jun-12 18:00N 42°22' W 071°03'0 0.6
2018-Jun-12 17:30N 42°22' W 071°03'0 0.5
2018-Jun-12 17:01N 42°22' W 071°03'1 2.6
2018-Jun-12 16:30N 42°23' W 071°03'0 0.0
2018-Jun-12 16:00N 42°23' W 071°03'0 0.0
2018-Jun-12 15:30N 42°23' W 071°03'0 0.0
2018-Jun-12 14:49N 42°23' W 071°03'1 3.9
2018-Jun-12 14:31N 42°22' W 071°02'0 0.5
2018-Jun-12 14:01N 42°21' W 071°02'611.2
2018-Jun-12 13:31N 42°17' W 070°57'2 4.9
2018-Jun-12 13:01N 42°16' W 070°55'816.4
2018-Jun-12 12:30N 42°21' W 071°03'0 0.4
2018-Jun-12 12:00N 42°22' W 071°03'1 1.6
2018-Jun-12 11:30N 42°22' W 071°02'  
Track history (hours):
 
Tides and Currents Weather Stations Pressure Air Temp Water Temp Dewpoint Dewpoint Depression Visibility Wind Speed Wind Dir Waves Ship Positions

Cetacea

Owner: Boston Harbor Cruises, Boston, MA. More information available from US FCC via Universal Licensing System and Coast Guard Vessel Documentation Center.

Last reported at 2018-Jun-21 23:48 UTC. Time now 2018-Jun-22 13:28 UTC.
Position N 42°22' W 071°02'.

Length 25 m; draft 2 m.

Type: Passenger vessel. MMSI: 367567110.

Date/timePositionNaut miles runAvg speedWind from/ knotsBaromVisibWave heightAir tempDewpointWater temp
2018-Jun-21 23:48N 42°22' W 071°02'415.7
2018-Jun-21 23:30N 42°19' W 070°57'4 8.0
2018-Jun-21 23:00N 42°16' W 070°55'816.3
2018-Jun-21 22:30N 42°21' W 071°03'611.5
2018-Jun-21 22:01N 42°17' W 070°57'2 4.4
2018-Jun-21 21:30N 42°16' W 070°55'815.9
2018-Jun-21 21:00N 42°21' W 071°03'3 6.9
2018-Jun-21 20:30N 42°19' W 070°59'5 9.9
2018-Jun-21 20:00N 42°15' W 070°55'816.1
2018-Jun-21 19:30N 42°21' W 071°02'0 0.6
2018-Jun-21 19:00N 42°21' W 071°03'816.6
2018-Jun-21 18:31N 42°15' W 070°55'0 0.7
2018-Jun-21 18:00N 42°16' W 070°55'816.2
2018-Jun-21 17:30N 42°21' W 071°03'0 0.5
2018-Jun-21 17:00N 42°22' W 071°03'0 0.0
2018-Jun-21 16:30N 42°22' W 071°03'0 0.5
2018-Jun-21 16:00N 42°21' W 071°03'0 0.7
2018-Jun-21 15:30N 42°21' W 071°02'816.1
2018-Jun-21 15:00N 42°15' W 070°55'0 0.8
2018-Jun-21 14:30N 42°16' W 070°55'816.4
2018-Jun-21 14:00N 42°21' W 071°03'0 0.4
2018-Jun-21 13:30N 42°21' W 071°03'611.5
2018-Jun-21 13:00N 42°17' W 070°57'2 4.7
2018-Jun-21 12:30N 42°15' W 070°55'816.5
2018-Jun-21 12:00N 42°21' W 071°03'1 1.4
2018-Jun-21 11:30N 42°22' W 071°02'0 0.3
2018-Jun-21 11:01N 42°22' W 071°02'0 0.0
2018-Jun-20 22:22N 42°22' W 071°02'1 1.8
2018-Jun-20 22:00N 42°22' W 071°03'2 3.4
2018-Jun-20 21:30N 42°21' W 071°01'1223.5
2018-Jun-20 21:01N 42°23' W 070°45'1121.4
2018-Jun-20 20:30N 42°26' W 070°31'1 1.3
2018-Jun-20 20:00N 42°26' W 070°31'611.6
2018-Jun-20 19:31N 42°25' W 070°39'1224.3
2018-Jun-20 19:00N 42°21' W 070°54'612.8
2018-Jun-20 18:31N 42°22' W 071°03'1 1.6
2018-Jun-20 18:01N 42°22' W 071°02'0 0.0
2018-Jun-20 17:30N 42°22' W 071°02'1 2.2
2018-Jun-20 17:00N 42°21' W 071°01'1326.0
2018-Jun-20 16:30N 42°16' W 070°45'9 3.9
2018-Jun-20 14:05N 42°12' W 070°34'225.6
2018-Jun-20 14:00N 42°13' W 070°36'1325.5
2018-Jun-20 13:30N 42°19' W 070°51'918.7
2018-Jun-20 13:00N 42°22' W 071°03'0 0.0
2018-Jun-20 12:30N 42°22' W 071°03'0 0.1
2018-Jun-20 12:00N 42°22' W 071°03'0 0.1
2018-Jun-20 11:30N 42°22' W 071°03'1 0.0
2018-Jun-19 22:56N 42°22' W 071°02'1 1.5
2018-Jun-19 22:30N 42°22' W 071°03'1 2.8
2018-Jun-19 22:01N 42°21' W 071°01'1122.4
2018-Jun-19 21:31N 42°22' W 070°46'1223.7
2018-Jun-19 21:01N 42°24' W 070°30'3 5.9
2018-Jun-19 20:30N 42°24' W 070°26'2 3.2
2018-Jun-19 20:00N 42°24' W 070°28'611.4
2018-Jun-19 19:31N 42°25' W 070°36'1224.3
2018-Jun-19 19:01N 42°21' W 070°52'816.7
2018-Jun-19 18:30N 42°22' W 071°03'0 0.9
2018-Jun-19 18:00N 42°22' W 071°02'0 0.4
2018-Jun-19 17:30N 42°22' W 071°02'0 0.9
2018-Jun-19 17:00N 42°21' W 071°02'1 1.5
2018-Jun-19 16:30N 42°22' W 071°03'0 0.0
2018-Jun-19 16:00N 42°22' W 071°03'0 0.0
2018-Jun-19 15:30N 42°22' W 071°03'1 1.4
2018-Jun-19 15:01N 42°22' W 071°02'0 0.0
2018-Jun-19 14:31N 42°22' W 071°02'0 0.0
2018-Jun-19 14:00N 42°22' W 071°02'1 1.3
2018-Jun-19 13:30N 42°21' W 071°03'612.1
2018-Jun-19 13:01N 42°17' W 070°57'2 4.1
2018-Jun-19 12:30N 42°16' W 070°55'816.4
2018-Jun-19 12:00N 42°21' W 071°03'0 0.5
2018-Jun-19 11:30N 42°22' W 071°03'1 1.2
2018-Jun-19 11:00N 42°22' W 071°02'0 0.0
2018-Jun-19 10:30N 42°22' W 071°02'0 0.0
2018-Jun-18 21:53N 42°22' W 071°02'0 1.1
2018-Jun-18 21:31N 42°22' W 071°02'0 0.8
2018-Jun-18 21:01N 42°22' W 071°03'612.0
2018-Jun-18 20:30N 42°21' W 070°55'1223.7
2018-Jun-18 20:00N 42°25' W 070°40'3 6.6
2018-Jun-18 19:30N 42°26' W 070°36'1325.1
2018-Jun-18 19:01N 42°23' W 070°52'816.4
2018-Jun-18 18:31N 42°22' W 071°03'0 0.6
2018-Jun-18 18:01N 42°22' W 071°03'0 1.0
2018-Jun-18 17:31N 42°22' W 071°02'0 0.0
2018-Jun-18 17:00N 42°22' W 071°02'0 0.0
2018-Jun-18 16:31N 42°22' W 071°02'1 1.5
2018-Jun-18 16:00N 42°22' W 071°03'0 0.5
2018-Jun-18 15:30N 42°21' W 071°03'816.6
2018-Jun-18 15:00N 42°15' W 070°55'0 0.6
2018-Jun-18 14:30N 42°16' W 070°55'816.3
2018-Jun-18 14:00N 42°21' W 071°03'0 0.6
2018-Jun-18 13:30N 42°22' W 071°03'0 0.0
2018-Jun-18 13:00N 42°22' W 071°03'1019.1
2018-Jun-18 12:30N 42°19' W 070°51'2725.6
2018-Jun-18 11:28N 42°05' W 070°20'714.3
2018-Jun-18 10:59N 42°03' W 070°11'0 0.8
2018-Jun-18 10:30N 42°03' W 070°11'3 6.8
2018-Jun-18 10:01N 42°03' W 070°15'1325.7
2018-Jun-18 09:30N 42°10' W 070°29'1325.9
2018-Jun-18 09:00N 42°17' W 070°44'1325.8
2018-Jun-18 08:30N 42°21' W 071°01'1 2.5
2018-Jun-18 08:00N 42°22' W 071°02'0 0.0
2018-Jun-17 18:03N 42°22' W 071°02'0 0.0
2018-Jun-17 18:00N 42°22' W 071°02'0 0.3
2018-Jun-17 17:30N 42°22' W 071°02'1 1.2
2018-Jun-17 17:01N 42°22' W 071°03'0 0.1
2018-Jun-17 16:30N 42°22' W 071°03'917.7
2018-Jun-17 16:00N 42°21' W 070°51'1325.2
2018-Jun-17 15:31N 42°23' W 070°34'815.4
2018-Jun-17 15:00N 42°26' W 070°25'0 1.0
2018-Jun-17 14:30N 42°26' W 070°25'714.2
2018-Jun-17 14:01N 42°23' W 070°34'1325.4
2018-Jun-17 13:31N 42°21' W 070°51'917.4
2018-Jun-17 13:01N 42°22' W 071°03'0 0.0
2018-Jun-17 12:30N 42°22' W 071°03'0 0.2
2018-Jun-17 12:00N 42°22' W 071°03'0 0.1
2018-Jun-17 11:30N 42°22' W 071°03'1 0.0
2018-Jun-16 17:53N 42°22' W 071°02'1 2.1
2018-Jun-16 17:30N 42°22' W 071°03'4 7.4
2018-Jun-16 17:00N 42°20' W 070°58'1224.1
2018-Jun-16 16:30N 42°27' W 070°45'1224.8
2018-Jun-16 16:01N 42°34' W 070°31'816.7
2018-Jun-16 15:30N 42°40' W 070°24'2 3.0
2018-Jun-16 15:00N 42°40' W 070°26'3 5.8
2018-Jun-16 14:31N 42°38' W 070°29'1224.3
2018-Jun-16 14:00N 42°30' W 070°42'1224.4
2018-Jun-16 13:31N 42°22' W 070°54'713.0
2018-Jun-16 13:00N 42°22' W 071°03'0 0.0
2018-Jun-16 12:30N 42°22' W 071°03'0 0.2
2018-Jun-16 12:00N 42°22' W 071°03'0 0.3
2018-Jun-16 11:30N 42°22' W 071°03'1 0.0
2018-Jun-15 23:36N 42°22' W 071°02'115.0
2018-Jun-15 23:30N 42°21' W 071°01'612.7
2018-Jun-15 23:00N 42°16' W 070°55'816.2
2018-Jun-15 22:30N 42°21' W 071°03'510.1
2018-Jun-15 22:00N 42°18' W 070°58'3 6.1
2018-Jun-15 21:30N 42°16' W 070°55'816.2
2018-Jun-15 21:01N 42°21' W 071°03'3 6.4
2018-Jun-15 20:31N 42°19' W 070°60'510.3
2018-Jun-15 20:00N 42°15' W 070°55'816.2
2018-Jun-15 19:30N 42°21' W 071°03'0 0.4
2018-Jun-15 19:01N 42°21' W 071°03'816.6
2018-Jun-15 18:30N 42°15' W 070°55'0 0.7
2018-Jun-15 18:00N 42°16' W 070°55'816.3
2018-Jun-15 17:30N 42°21' W 071°03'0 0.5
2018-Jun-15 17:00N 42°21' W 071°03'0 0.6
2018-Jun-15 16:31N 42°22' W 071°03'0 0.0
2018-Jun-15 16:01N 42°22' W 071°03'1 1.1
2018-Jun-15 15:30N 42°22' W 071°02'0 0.3
2018-Jun-15 15:00N 42°22' W 071°02'0 0.1
2018-Jun-15 14:30N 42°22' W 071°02'0 0.0
2018-Jun-15 14:00N 42°22' W 071°02'0 0.0
2018-Jun-15 13:30N 42°22' W 071°02'0 0.0
2018-Jun-15 13:01N 42°22' W 071°02'0 0.0
2018-Jun-14 23:36N 42°22' W 071°02'0 0.0
2018-Jun-14 23:30N 42°22' W 071°02'1 1.4
2018-Jun-14 23:00N 42°22' W 071°03'0 0.3
2018-Jun-14 22:31N 42°22' W 071°03'1020.6
2018-Jun-14 22:01N 42°18' W 070°49'20 9.2
2018-Jun-14 19:52N 42°15' W 070°23'925.1
2018-Jun-14 19:30N 42°15' W 070°36'1325.6
2018-Jun-14 19:01N 42°19' W 070°52'917.2
2018-Jun-14 18:30N 42°22' W 071°03'0 0.8
2018-Jun-14 18:01N 42°22' W 071°03'0 0.7
2018-Jun-14 17:30N 42°22' W 071°03'0 0.0
2018-Jun-14 17:00N 42°22' W 071°03'0 0.0
2018-Jun-14 16:30N 42°22' W 071°03'1 1.5
2018-Jun-14 16:00N 42°22' W 071°02'0 0.9
2018-Jun-14 15:30N 42°22' W 071°03'0 0.5
2018-Jun-14 15:00N 42°22' W 071°03'0 0.9
2018-Jun-14 14:30N 42°22' W 071°02'0 0.5
2018-Jun-14 14:00N 42°22' W 071°02'510.9
2018-Jun-14 13:30N 42°17' W 070°58'2 4.5
2018-Jun-14 13:00N 42°16' W 070°55'815.4
2018-Jun-14 12:31N 42°21' W 071°03'0 0.6
2018-Jun-14 12:00N 42°22' W 071°03'0 1.0
2018-Jun-14 11:30N 42°21' W 071°02'0 0.0
2018-Jun-13 23:16N 42°22' W 071°02'1 3.1
2018-Jun-13 23:01N 42°22' W 071°03'0 0.0
2018-Jun-13 22:31N 42°22' W 071°03'816.7
2018-Jun-13 22:00N 42°24' W 070°52'1224.5
2018-Jun-13 21:31N 42°33' W 070°41'1122.6
2018-Jun-13 21:00N 42°41' W 070°29'1 2.7
2018-Jun-13 20:30N 42°39' W 070°29'2 3.4
2018-Jun-13 20:01N 42°39' W 070°27'1325.4
2018-Jun-13 19:31N 42°31' W 070°40'1326.2
2018-Jun-13 19:01N 42°23' W 070°54'713.2
2018-Jun-13 18:30N 42°22' W 071°03'0 0.7
2018-Jun-13 18:01N 42°22' W 071°03'0 0.9
2018-Jun-13 17:30N 42°22' W 071°02'0 0.0
2018-Jun-13 17:01N 42°22' W 071°02'0 0.0
2018-Jun-13 16:30N 42°22' W 071°02'0 0.0
2018-Jun-13 16:01N 42°22' W 071°02'0 0.0
2018-Jun-13 15:30N 42°22' W 071°02'0 0.0
2018-Jun-13 15:00N 42°22' W 071°02'0 0.0
2018-Jun-13 14:30N 42°22' W 071°02'1 1.6
2018-Jun-13 14:00N 42°21' W 071°03'713.6
2018-Jun-13 13:30N 42°17' W 070°56'1 1.9
2018-Jun-13 13:01N 42°16' W 070°55'815.4
2018-Jun-13 12:30N 42°21' W 071°03'0 0.5
2018-Jun-13 12:00N 42°22' W 071°03'0 0.0
2018-Jun-13 11:30N 42°22' W 071°03'1 1.4
2018-Jun-13 11:00N 42°22' W 071°02'0 0.0
2018-Jun-12 23:01N 42°22' W 071°02'0 0.0
2018-Jun-12 23:00N 42°22' W 071°02'1 1.6
2018-Jun-12 22:31N 42°22' W 071°03'3 6.8
2018-Jun-12 22:01N 42°20' W 070°59'1121.9
2018-Jun-12 21:31N 42°27' W 070°47'1121.5
2018-Jun-12 21:00N 42°34' W 070°36'714.3
2018-Jun-12 20:31N 42°35' W 070°26'1223.8
2018-Jun-12 20:00N 42°24' W 070°23'1121.7
2018-Jun-12 19:30N 42°22' W 070°37'1224.9
2018-Jun-12 19:00N 42°21' W 070°54'713.1
2018-Jun-12 18:30N 42°22' W 071°03'0 0.0
2018-Jun-12 18:00N 42°22' W 071°03'0 0.6
2018-Jun-12 17:30N 42°22' W 071°03'0 0.5
2018-Jun-12 17:01N 42°22' W 071°03'1 2.6
2018-Jun-12 16:30N 42°23' W 071°03'0 0.0
2018-Jun-12 16:00N 42°23' W 071°03'0 0.0
2018-Jun-12 15:30N 42°23' W 071°03'0 0.0
2018-Jun-12 14:49N 42°23' W 071°03'1 3.9
2018-Jun-12 14:31N 42°22' W 071°02'0 0.5
2018-Jun-12 14:01N 42°21' W 071°02'611.2
2018-Jun-12 13:31N 42°17' W 070°57'2 4.9
2018-Jun-12 13:01N 42°16' W 070°55'816.4
2018-Jun-12 12:30N 42°21' W 071°03'0 0.4
2018-Jun-12 12:00N 42°22' W 071°03'1 1.6
2018-Jun-12 11:30N 42°22' W 071°02'  

Dump ship's entire track history